createdAt,value
2022-11-16T00:00:08.558Z,11.21
2022-11-16T00:03:12.890Z,11.09
2022-11-16T00:06:18.001Z,11.14
2022-11-16T00:09:27.067Z,10.99
2022-11-16T00:12:30.920Z,10.78
2022-11-16T00:15:34.551Z,10.82
2022-11-16T00:18:38.320Z,10.82
2022-11-16T00:21:43.740Z,10.57
2022-11-16T00:24:47.399Z,10.85
2022-11-16T00:27:51.163Z,10.80
2022-11-16T00:31:00.499Z,10.87
2022-11-16T00:34:04.239Z,10.88
2022-11-16T00:37:09.590Z,10.81
2022-11-16T00:40:14.343Z,10.86
2022-11-16T00:43:18.160Z,10.74
2022-11-16T00:46:21.939Z,10.81
2022-11-16T00:49:25.730Z,10.77
2022-11-16T00:52:31.098Z,10.74
2022-11-16T00:55:37.840Z,10.63
2022-11-16T00:58:41.550Z,10.12
2022-11-16T01:01:47.449Z,10.31
2022-11-16T01:04:51.311Z,10.20
2022-11-16T01:07:56.640Z,10.38
2022-11-16T01:11:21.380Z,10.50
2022-11-16T01:14:25.060Z,10.49
2022-11-16T01:17:29.352Z,10.59
2022-11-16T01:20:33.046Z,10.31
2022-11-16T01:23:38.229Z,10.17
2022-11-16T01:26:42.041Z,9.86
2022-11-16T01:29:45.806Z,9.67
2022-11-16T01:32:50.724Z,9.81
2022-11-16T01:35:55.075Z,9.83
2022-11-16T01:39:02.318Z,9.87
2022-11-16T01:42:18.967Z,9.93
2022-11-16T01:45:31.690Z,10.04
2022-11-16T01:48:36.807Z,9.97
2022-11-16T01:51:43.967Z,10.04
2022-11-16T01:54:54.341Z,9.79
2022-11-16T01:57:59.096Z,9.83
2022-11-16T02:01:05.132Z,9.79
2022-11-16T02:04:19.120Z,9.73
2022-11-16T02:08:02.160Z,9.89
2022-11-16T02:11:26.820Z,9.60
2022-11-16T02:14:44.508Z,9.96
2022-11-16T02:17:56.471Z,9.88
2022-11-16T02:21:11.682Z,9.84
2022-11-16T02:24:44.852Z,10.08
2022-11-16T02:28:15.326Z,9.47
2022-11-16T02:31:28.880Z,9.78
2022-11-16T02:34:39.738Z,9.99
2022-11-16T02:37:48.057Z,10.08
2022-11-16T02:40:58.990Z,9.88
2022-11-16T02:44:10.328Z,10.12
2022-11-16T02:47:21.927Z,10.11
2022-11-16T02:50:28.779Z,9.89
2022-11-16T02:53:35.334Z,10.05
2022-11-16T02:56:46.180Z,10.07
2022-11-16T02:59:55.870Z,10.05
2022-11-16T03:03:17.897Z,10.14
2022-11-16T03:06:25.879Z,10.01
2022-11-16T03:09:34.618Z,9.90
2022-11-16T03:12:40.419Z,9.86
2022-11-16T03:15:44.867Z,9.89
2022-11-16T03:18:55.230Z,9.93
2022-11-16T03:22:05.298Z,9.65
2022-11-16T03:25:13.368Z,9.53
2022-11-16T03:28:24.606Z,9.99
2022-11-16T03:31:36.121Z,9.92
2022-11-16T03:34:45.868Z,9.79
2022-11-16T03:37:53.498Z,9.89
2022-11-16T03:41:03.129Z,9.98
2022-11-16T03:44:09.241Z,10.02
2022-11-16T03:47:13.788Z,9.96
2022-11-16T03:50:19.393Z,9.86
2022-11-16T03:53:23.038Z,9.79
2022-11-16T03:56:27.039Z,9.91
2022-11-16T03:59:32.238Z,9.81
2022-11-16T04:02:36.739Z,9.87
2022-11-16T04:05:59.319Z,9.89
2022-11-16T04:09:20.470Z,9.84
2022-11-16T04:12:41.687Z,9.73
2022-11-16T04:16:00.778Z,9.69
2022-11-16T04:19:21.829Z,9.60
2022-11-16T04:22:50.178Z,9.86
2022-11-16T04:25:55.213Z,9.85
2022-11-16T04:28:58.917Z,9.83
2022-11-16T04:32:20.827Z,9.61
2022-11-16T04:35:44.748Z,9.85
2022-11-16T04:38:50.068Z,9.68
2022-11-16T04:42:12.649Z,9.84
2022-11-16T04:45:33.921Z,9.97
2022-11-16T04:48:37.760Z,9.94
2022-11-16T04:51:41.660Z,9.96
2022-11-16T04:54:46.799Z,9.78
2022-11-16T04:57:50.599Z,9.71
2022-11-16T05:00:54.656Z,9.71
2022-11-16T05:03:59.457Z,9.85
2022-11-16T05:07:03.513Z,9.88
2022-11-16T05:10:09.868Z,9.94
2022-11-16T05:13:15.010Z,9.71
2022-11-16T05:16:19.533Z,9.82
2022-11-16T05:19:40.561Z,9.98
2022-11-16T05:22:44.760Z,9.92
2022-11-16T05:25:50.004Z,9.94
2022-11-16T05:28:54.150Z,9.77
2022-11-16T05:31:57.929Z,9.89
2022-11-16T05:35:03.220Z,10.00
2022-11-16T05:38:07.081Z,9.90
2022-11-16T05:41:17.222Z,9.42
2022-11-16T05:44:21.294Z,9.75
2022-11-16T05:47:25.509Z,9.79
2022-11-16T05:50:29.411Z,9.95
2022-11-16T05:53:49.621Z,9.85
2022-11-16T05:57:00.102Z,8.99
2022-11-16T06:03:38.391Z,9.70
2022-11-16T06:06:42.570Z,9.77
2022-11-16T06:09:47.813Z,10.02
2022-11-16T06:12:57.910Z,10.22
2022-11-16T06:16:02.703Z,10.41
2022-11-16T06:19:08.211Z,10.83
2022-11-16T06:22:13.454Z,11.01
2022-11-16T06:25:18.190Z,10.98
2022-11-16T06:28:24.351Z,11.12
2022-11-16T06:31:28.452Z,11.10
2022-11-16T06:34:33.370Z,11.17
2022-11-16T06:37:38.575Z,11.13
2022-11-16T06:40:43.779Z,11.46
2022-11-16T06:43:49.083Z,11.64
2022-11-16T06:46:56.091Z,11.28
2022-11-16T06:50:01.766Z,11.61
2022-11-16T06:53:05.650Z,12.02
2022-11-16T06:56:13.943Z,12.13
2022-11-16T06:59:24.510Z,12.31
2022-11-16T07:02:28.621Z,12.57
2022-11-16T07:05:34.203Z,12.74
2022-11-16T07:08:39.160Z,12.90
2022-11-16T07:11:43.600Z,13.21
2022-11-16T07:14:49.229Z,13.57
2022-11-16T07:17:55.991Z,13.70
2022-11-16T07:20:59.893Z,13.47
2022-11-16T07:24:04.131Z,13.84
2022-11-16T07:27:09.670Z,14.10
2022-11-16T07:30:19.510Z,14.31
2022-11-16T07:33:32.881Z,14.30
2022-11-16T07:36:55.011Z,14.49
2022-11-16T07:39:59.130Z,14.77
2022-11-16T07:43:03.280Z,14.78
2022-11-16T07:49:39.370Z,15.12
2022-11-16T07:52:48.670Z,15.27
2022-11-16T07:55:56.520Z,15.48
2022-11-16T07:59:03.440Z,15.39
2022-11-16T08:02:13.291Z,15.71
2022-11-16T08:05:19.810Z,15.75
2022-11-16T08:08:25.790Z,15.88
2022-11-16T08:11:29.874Z,16.05
2022-11-16T08:14:33.991Z,16.05
2022-11-16T08:17:40.232Z,15.50
2022-11-16T08:20:46.694Z,15.81
2022-11-16T08:23:55.248Z,15.98
2022-11-16T08:27:02.728Z,16.32
2022-11-16T08:30:10.172Z,16.39
2022-11-16T08:33:18.180Z,16.91
2022-11-16T08:36:22.521Z,17.08
2022-11-16T08:39:26.623Z,17.14
2022-11-16T08:42:30.580Z,16.83
2022-11-16T08:45:34.859Z,17.13
2022-11-16T08:48:40.889Z,17.30
2022-11-16T08:51:45.843Z,17.37
2022-11-16T08:54:50.540Z,17.01
2022-11-16T08:57:54.856Z,17.28
2022-11-16T09:01:00.378Z,17.66
2022-11-16T09:04:05.660Z,17.95
2022-11-16T09:07:09.463Z,17.93
2022-11-16T09:10:14.579Z,18.20
2022-11-16T09:13:18.292Z,18.51
2022-11-16T09:16:22.999Z,18.07
2022-11-16T09:19:28.534Z,18.38
2022-11-16T09:22:32.439Z,18.29
2022-11-16T09:25:36.469Z,17.85
2022-11-16T09:28:40.410Z,18.00
2022-11-16T09:31:44.601Z,18.69
2022-11-16T09:34:50.050Z,18.29
2022-11-16T09:37:53.826Z,18.63
2022-11-16T09:40:58.710Z,18.95
2022-11-16T09:44:14.589Z,19.23
2022-11-16T09:47:22.075Z,18.79
2022-11-16T09:50:41.708Z,18.57
2022-11-16T09:53:49.161Z,18.83
2022-11-16T09:56:58.721Z,18.69
2022-11-16T10:00:06.179Z,18.84
2022-11-16T10:03:17.640Z,18.59
2022-11-16T10:06:29.041Z,18.58
2022-11-16T10:09:33.000Z,19.28
2022-11-16T10:12:44.042Z,19.53
2022-11-16T10:16:00.499Z,19.40
2022-11-16T10:19:13.701Z,19.54
2022-11-16T10:22:32.080Z,19.80
2022-11-16T10:25:44.541Z,20.03
2022-11-16T10:29:05.989Z,19.35
2022-11-16T10:32:19.329Z,19.89
2022-11-16T10:35:29.420Z,20.21
2022-11-16T10:38:35.663Z,20.59
2022-11-16T10:41:44.225Z,20.43
2022-11-16T10:44:54.450Z,20.57
2022-11-16T10:48:03.659Z,20.80
2022-11-16T10:51:09.450Z,20.82
2022-11-16T10:54:15.770Z,20.88
2022-11-16T10:57:19.841Z,20.59
2022-11-16T11:00:35.911Z,20.38
2022-11-16T11:03:39.781Z,19.97
2022-11-16T11:06:44.450Z,19.99
2022-11-16T11:09:54.210Z,20.38
2022-11-16T11:13:08.282Z,20.21
2022-11-16T11:16:18.350Z,20.51
2022-11-16T11:19:27.820Z,20.41
2022-11-16T11:22:33.251Z,20.45
2022-11-16T11:25:42.590Z,20.63
2022-11-16T11:28:51.500Z,20.31
2022-11-16T11:31:57.781Z,20.40
2022-11-16T11:35:02.301Z,20.38
2022-11-16T11:38:08.270Z,20.02
2022-11-16T11:41:20.722Z,19.97
2022-11-16T11:44:32.700Z,19.99
2022-11-16T11:47:58.146Z,20.34
2022-11-16T11:51:10.850Z,20.67
2022-11-16T11:54:22.498Z,20.45
2022-11-16T11:57:27.880Z,20.40
2022-11-16T12:00:42.920Z,20.22
2022-11-16T12:04:13.780Z,20.37
2022-11-16T12:07:29.052Z,20.32
2022-11-16T12:10:46.491Z,20.40
2022-11-16T12:14:18.529Z,20.55
2022-11-16T12:17:35.469Z,19.95
2022-11-16T12:20:48.380Z,20.06
2022-11-16T12:24:09.899Z,20.02
2022-11-16T12:27:27.327Z,20.18
2022-11-16T12:30:40.039Z,19.73
2022-11-16T12:33:56.410Z,19.55
2022-11-16T12:37:06.411Z,19.46
2022-11-16T12:40:32.031Z,19.65
2022-11-16T12:43:45.310Z,19.99
2022-11-16T12:47:01.269Z,19.52
2022-11-16T12:50:16.739Z,19.43
2022-11-16T12:53:32.250Z,19.08
2022-11-16T12:56:48.872Z,18.84
2022-11-16T13:00:08.740Z,18.73
2022-11-16T13:03:22.129Z,18.69
2022-11-16T13:06:30.819Z,18.63
2022-11-16T13:09:38.760Z,18.44
2022-11-16T13:12:45.600Z,18.63
2022-11-16T13:15:49.718Z,18.77
2022-11-16T13:18:57.769Z,18.76
2022-11-16T13:22:08.441Z,18.67
2022-11-16T13:25:22.419Z,18.53
2022-11-16T13:28:35.658Z,18.44
2022-11-16T13:31:47.199Z,18.41
2022-11-16T13:34:53.466Z,18.22
2022-11-16T13:37:57.293Z,18.11
2022-11-16T13:41:28.039Z,18.01
2022-11-16T13:44:32.069Z,17.82
2022-11-16T13:47:36.590Z,17.79
2022-11-16T13:50:48.272Z,17.77
2022-11-16T13:57:25.982Z,17.88
2022-11-16T14:00:33.650Z,17.71
2022-11-16T14:03:42.090Z,17.67
2022-11-16T14:07:01.233Z,17.74
2022-11-16T14:10:08.170Z,17.46
2022-11-16T14:13:40.819Z,17.45
2022-11-16T14:16:50.829Z,17.55
2022-11-16T14:19:56.460Z,17.35
2022-11-16T14:23:13.481Z,17.12
2022-11-16T14:26:24.768Z,16.98
2022-11-16T14:29:47.519Z,16.81
2022-11-16T14:32:53.993Z,16.77
2022-11-16T14:35:58.178Z,16.84
2022-11-16T14:39:21.869Z,16.68
2022-11-16T14:42:38.132Z,16.57
2022-11-16T14:45:50.658Z,16.48
2022-11-16T14:48:57.499Z,16.37
2022-11-16T14:52:04.629Z,16.27
2022-11-16T14:55:18.469Z,16.18
2022-11-16T14:58:24.288Z,16.14
2022-11-16T15:01:30.742Z,16.18
2022-11-16T15:04:34.619Z,16.21
2022-11-16T15:07:38.611Z,16.12
2022-11-16T15:10:52.149Z,16.12
2022-11-16T15:13:59.579Z,15.99
2022-11-16T15:17:03.359Z,16.03
2022-11-16T15:20:19.881Z,15.86
2022-11-16T15:23:27.662Z,15.76
2022-11-16T15:26:35.729Z,15.80
2022-11-16T15:29:40.361Z,15.68
2022-11-16T15:32:45.220Z,15.67
2022-11-16T15:35:48.979Z,15.72
2022-11-16T15:38:54.598Z,15.71
2022-11-16T15:42:03.829Z,15.63
2022-11-16T15:45:19.569Z,15.69
2022-11-16T15:48:25.779Z,15.71
2022-11-16T15:51:32.538Z,15.61
2022-11-16T15:54:51.450Z,15.56
2022-11-16T15:58:06.109Z,15.51
2022-11-16T16:01:10.913Z,15.46
2022-11-16T16:04:17.888Z,15.56
2022-11-16T16:07:37.458Z,15.55
2022-11-16T16:10:43.001Z,15.62
2022-11-16T16:13:59.960Z,15.68
2022-11-16T16:17:03.629Z,15.64
2022-11-16T16:20:10.546Z,15.71
2022-11-16T16:23:16.949Z,15.74
2022-11-16T16:26:20.889Z,15.44
2022-11-16T16:29:28.431Z,15.52
2022-11-16T16:32:34.159Z,15.67
2022-11-16T16:35:38.050Z,15.72
2022-11-16T16:38:42.069Z,15.78
2022-11-16T16:41:48.241Z,15.82
2022-11-16T16:44:53.870Z,15.62
2022-11-16T16:47:57.492Z,15.62
2022-11-16T16:51:01.251Z,15.73
2022-11-16T16:54:05.269Z,15.56
2022-11-16T16:57:13.409Z,15.70
2022-11-16T17:00:19.819Z,15.74
2022-11-16T17:03:24.540Z,15.70
2022-11-16T17:06:30.878Z,15.54
2022-11-16T17:09:34.500Z,15.65
2022-11-16T17:12:38.310Z,15.74
2022-11-16T17:15:43.589Z,15.74
2022-11-16T17:18:48.026Z,15.69
2022-11-16T17:21:52.879Z,15.72
2022-11-16T17:24:56.510Z,15.73
2022-11-16T17:28:00.359Z,15.69
2022-11-16T17:31:07.139Z,15.56
2022-11-16T17:34:13.761Z,15.69
2022-11-16T17:37:18.362Z,15.59
2022-11-16T17:40:21.959Z,15.56
2022-11-16T17:43:25.799Z,15.69
2022-11-16T17:46:30.920Z,15.66
2022-11-16T17:49:34.710Z,15.73
2022-11-16T17:52:38.420Z,15.75
2022-11-16T17:55:43.732Z,15.56
2022-11-16T17:58:50.287Z,15.54
2022-11-16T18:01:55.558Z,15.52
2022-11-16T18:04:59.165Z,15.41
2022-11-16T18:08:02.980Z,15.35
2022-11-16T18:11:08.329Z,15.52
2022-11-16T18:14:12.055Z,15.48
2022-11-16T18:17:17.170Z,15.51
2022-11-16T18:20:21.490Z,15.40
2022-11-16T18:23:25.162Z,15.44
2022-11-16T18:26:28.933Z,15.50
2022-11-16T18:29:32.650Z,15.56
2022-11-16T18:32:37.860Z,15.49
2022-11-16T18:35:41.872Z,15.47
2022-11-16T18:38:45.782Z,15.42
2022-11-16T18:41:54.990Z,15.42
2022-11-16T18:44:58.989Z,15.45
2022-11-16T18:48:04.130Z,15.31
2022-11-16T18:51:08.100Z,15.03
2022-11-16T18:54:11.831Z,15.09
2022-11-16T18:57:15.620Z,15.19
2022-11-16T19:00:21.690Z,15.12
2022-11-16T19:03:26.870Z,15.09
2022-11-16T19:06:33.378Z,15.11
2022-11-16T19:09:37.109Z,15.20
2022-11-16T19:12:40.899Z,15.10
2022-11-16T19:15:44.741Z,15.08
2022-11-16T19:18:51.270Z,14.94
2022-11-16T19:21:56.601Z,15.11
2022-11-16T19:25:05.704Z,15.15
2022-11-16T19:28:10.348Z,15.06
2022-11-16T19:31:16.439Z,15.10
2022-11-16T19:34:21.570Z,15.13
2022-11-16T19:37:25.370Z,15.05
2022-11-16T19:40:29.019Z,14.89
2022-11-16T19:43:33.466Z,14.99
2022-11-16T19:46:37.509Z,14.84
2022-11-16T19:49:42.798Z,15.01
2022-11-16T19:52:46.721Z,14.89
2022-11-16T19:55:55.178Z,14.84
2022-11-16T19:58:59.066Z,14.90
2022-11-16T20:02:02.750Z,14.86
2022-11-16T20:05:09.148Z,14.91
2022-11-16T20:08:12.861Z,15.01
2022-11-16T20:11:18.498Z,15.06
2022-11-16T20:14:22.317Z,15.02
2022-11-16T20:17:26.180Z,15.01
2022-11-16T20:20:31.338Z,14.76
2022-11-16T20:23:35.893Z,14.76
2022-11-16T20:26:43.715Z,14.89
2022-11-16T20:29:47.707Z,14.90
2022-11-16T20:32:51.378Z,14.91
2022-11-16T20:36:01.833Z,14.82
2022-11-16T20:39:05.726Z,14.80
2022-11-16T20:42:09.368Z,14.77
2022-11-16T20:45:13.317Z,14.80
2022-11-16T20:48:17.057Z,14.78
2022-11-16T20:51:22.608Z,14.74
2022-11-16T20:54:26.278Z,14.60
2022-11-16T20:57:29.958Z,14.73
2022-11-16T21:00:33.749Z,14.81
2022-11-16T21:03:37.764Z,14.74
2022-11-16T21:06:43.207Z,14.83
2022-11-16T21:10:04.273Z,14.80
2022-11-16T21:13:26.298Z,14.93
2022-11-16T21:16:29.957Z,14.97
2022-11-16T21:19:33.752Z,14.93
2022-11-16T21:22:39.008Z,15.01
2022-11-16T21:25:42.588Z,14.93
2022-11-16T21:28:46.268Z,14.64
2022-11-16T21:31:50.327Z,14.42
2022-11-16T21:34:54.340Z,14.63
2022-11-16T21:37:59.839Z,14.65
2022-11-16T21:41:06.447Z,14.66
2022-11-16T21:44:10.209Z,14.70
2022-11-16T21:47:14.289Z,14.78
2022-11-16T21:50:31.752Z,14.76
2022-11-16T21:53:37.979Z,14.86
2022-11-16T21:56:41.861Z,14.87
2022-11-16T21:59:45.608Z,14.78
2022-11-16T22:02:49.360Z,14.77
2022-11-16T22:06:13.687Z,14.82
2022-11-16T22:09:18.918Z,14.85
2022-11-16T22:12:22.678Z,14.76
2022-11-16T22:15:26.408Z,14.83
2022-11-16T22:18:31.188Z,14.72
2022-11-16T22:21:34.908Z,14.66
2022-11-16T22:24:40.312Z,14.71
2022-11-16T22:28:05.942Z,14.78
2022-11-16T22:31:10.946Z,14.36
2022-11-16T22:34:14.612Z,14.54
2022-11-16T22:37:18.588Z,14.53
2022-11-16T22:40:23.545Z,14.69
2022-11-16T22:43:28.380Z,14.73
2022-11-16T22:46:32.280Z,14.73
2022-11-16T22:49:35.907Z,14.65
2022-11-16T22:52:39.818Z,14.62
2022-11-16T22:55:44.979Z,14.65
2022-11-16T22:58:48.648Z,14.72
2022-11-16T23:01:52.297Z,14.59
2022-11-16T23:04:56.219Z,14.56
2022-11-16T23:08:00.199Z,14.66
2022-11-16T23:11:25.629Z,14.64
2022-11-16T23:14:46.370Z,14.63
2022-11-16T23:17:50.171Z,14.58
2022-11-16T23:21:11.247Z,14.26
2022-11-16T23:24:33.821Z,14.29
2022-11-16T23:27:42.595Z,14.20
2022-11-16T23:30:46.400Z,13.88
2022-11-16T23:33:50.090Z,13.87
2022-11-16T23:36:53.763Z,13.65
2022-11-16T23:39:57.531Z,13.61
2022-11-16T23:43:20.629Z,13.60
2022-11-16T23:46:24.241Z,13.77
2022-11-16T23:49:27.880Z,13.65
2022-11-16T23:52:31.560Z,13.92
2022-11-16T23:55:35.829Z,13.85
2022-11-16T23:58:41.030Z,13.71
